Time;durP1;ratioP1;P1;durP2;ratioP2;P2;SDS_P1;SDS_P2;PMS_P1;PMS_P2;Temp;Humidity;BMP_temperature;BMP_pressure;BME280_temperature;BME280_humidity;BME280_pressure;Samples;Min_cycle;Max_cycle;Signal;HPM_P1;HPM_P2
2022/10/19 00:00:08;;;;;;;55.78;30.35;;;;;;;;;;630402;23;843;-68
2022/10/19 00:01:17;;;;;;;54.10;30.50;;;;;;;;;;630586;23;1045;-68
2022/10/19 00:02:25;;;;;;;54.15;29.20;;;;;;;;;;629640;23;1010;-68
2022/10/19 00:03:33;;;;;;;54.58;28.92;;;;;;;;;;630039;23;1348;-68
2022/10/19 00:04:43;;;;;;;51.30;30.10;;;;;;;;;;630019;23;927;-68
2022/10/19 00:05:51;;;;;;;51.50;27.95;;;;;;;;;;631097;23;966;-67
2022/10/19 00:07:18;;;;;;;54.78;30.20;;;;;;;;;;630059;23;2019;-67
2022/10/19 00:08:26;;;;;;;60.60;31.00;;;;;;;;;;627056;23;872;-68
2022/10/19 00:09:35;;;;;;;60.30;31.58;;;;;;;;;;630188;23;928;-67
2022/10/19 00:10:42;;;;;;;60.58;31.23;;;;;;;;;;633527;23;878;-68
2022/10/19 00:11:52;;;;;;;63.22;32.70;;;;;;;;;;630755;23;910;-67
2022/10/19 00:13:00;;;;;;;61.40;31.48;;;;;;;;;;630500;23;870;-68
2022/10/19 00:14:10;;;;;;;58.33;31.42;;;;;;;;;;631111;23;899;-68
2022/10/19 00:15:18;;;;;;;59.53;32.00;;;;;;;;;;627535;23;1300;-66
2022/10/19 00:16:31;;;;;;;71.03;33.30;;;;;;;;;;630989;23;1022;-68
2022/10/19 00:17:42;;;;;;;80.75;35.63;;;;;;;;;;631253;23;843;-68
2022/10/19 00:18:49;;;;;;;75.72;35.00;;;;;;;;;;629341;23;861;-68
2022/10/19 00:20:03;;;;;;;65.85;33.70;;;;;;;;;;630744;23;1243;-68
2022/10/19 00:21:13;;;;;;;79.20;35.53;;;;;;;;;;630618;23;1074;-67
2022/10/19 00:22:21;;;;;;;68.70;33.55;;;;;;;;;;630851;23;1533;-68
2022/10/19 00:23:29;;;;;;;64.10;32.95;;;;;;;;;;631075;23;1628;-68
2022/10/19 00:24:37;;;;;;;58.88;31.05;;;;;;;;;;634603;23;780;-68
2022/10/19 00:25:54;;;;;;;66.43;32.55;;;;;;;;;;628646;23;1027;-67
2022/10/19 00:27:02;;;;;;;72.63;33.63;;;;;;;;;;630510;23;851;-68
2022/10/19 00:28:10;;;;;;;74.55;34.80;;;;;;;;;;630865;23;930;-68
2022/10/19 00:29:18;;;;;;;66.90;33.20;;;;;;;;;;631237;23;816;-68
2022/10/19 00:30:26;;;;;;;67.72;32.75;;;;;;;;;;630760;23;1005;-68
2022/10/19 00:31:33;;;;;;;70.72;33.00;;;;;;;;;;631332;23;788;-68
2022/10/19 00:32:42;;;;;;;64.35;32.45;;;;;;;;;;630700;23;980;-68
2022/10/19 00:33:49;;;;;;;71.43;33.75;;;;;;;;;;630056;23;1046;-68
2022/10/19 00:34:57;;;;;;;73.95;34.00;;;;;;;;;;631170;23;1341;-68
2022/10/19 00:36:12;;;;;;;67.88;32.33;;;;;;;;;;627761;23;872;-68
2022/10/19 00:37:21;;;;;;;71.03;34.10;;;;;;;;;;630255;23;887;-68
2022/10/19 00:38:29;;;;;;;73.68;34.33;;;;;;;;;;631082;23;928;-68
2022/10/19 00:39:37;;;;;;;69.03;32.90;;;;;;;;;;631720;23;861;-68
2022/10/19 00:40:46;;;;;;;72.32;32.97;;;;;;;;;;631476;23;839;-68
2022/10/19 00:41:53;;;;;;;74.80;33.45;;;;;;;;;;630857;23;902;-68
2022/10/19 00:43:02;;;;;;;70.53;33.10;;;;;;;;;;630527;23;843;-68
2022/10/19 00:44:12;;;;;;;72.72;33.00;;;;;;;;;;631752;23;765;-68
2022/10/19 00:45:20;;;;;;;72.10;34.17;;;;;;;;;;630998;23;1320;-67
2022/10/19 00:46:29;;;;;;;76.25;33.95;;;;;;;;;;631176;23;882;-68
2022/10/19 00:47:38;;;;;;;71.95;33.53;;;;;;;;;;631249;23;863;-68
2022/10/19 00:48:46;;;;;;;77.90;33.95;;;;;;;;;;630578;23;869;-67
2022/10/19 00:50:03;;;;;;;70.72;33.30;;;;;;;;;;630924;23;1223;-68
2022/10/19 00:51:12;;;;;;;76.15;34.15;;;;;;;;;;631241;23;962;-68
2022/10/19 00:52:22;;;;;;;64.82;31.83;;;;;;;;;;630268;23;875;-68
2022/10/19 00:53:30;;;;;;;71.63;33.10;;;;;;;;;;631160;23;800;-69
2022/10/19 00:54:39;;;;;;;78.82;33.35;;;;;;;;;;630000;23;911;-67
2022/10/19 00:55:48;;;;;;;73.57;33.55;;;;;;;;;;631552;23;864;-68
2022/10/19 00:56:58;;;;;;;72.07;33.70;;;;;;;;;;630385;23;863;-68
2022/10/19 00:58:06;;;;;;;67.38;32.63;;;;;;;;;;631409;23;943;-68
2022/10/19 00:59:15;;;;;;;61.67;30.77;;;;;;;;;;631730;23;843;-68
2022/10/19 01:00:23;;;;;;;57.47;30.55;;;;;;;;;;631397;23;919;-67
2022/10/19 01:01:32;;;;;;;58.95;30.08;;;;;;;;;;630661;23;898;-68
2022/10/19 01:02:40;;;;;;;64.05;31.13;;;;;;;;;;631454;23;993;-68
2022/10/19 01:03:48;;;;;;;61.80;30.77;;;;;;;;;;630491;23;1239;-68
2022/10/19 01:04:58;;;;;;;63.63;31.15;;;;;;;;;;630848;23;844;-67
2022/10/19 01:06:07;;;;;;;70.07;32.10;;;;;;;;;;630817;23;1430;-68
2022/10/19 01:07:15;;;;;;;70.32;33.13;;;;;;;;;;627858;23;919;-68
2022/10/19 01:08:23;;;;;;;66.35;32.25;;;;;;;;;;630988;23;1077;-68
2022/10/19 01:09:31;;;;;;;60.88;30.90;;;;;;;;;;631217;23;938;-68
2022/10/19 01:10:44;;;;;;;59.13;30.42;;;;;;;;;;630534;23;994;-68
2022/10/19 01:12:21;;;;;;;76.95;34.13;;;;;;;;;;631103;23;1327;-66
2022/10/19 01:13:35;;;;;;;77.30;33.13;;;;;;;;;;629858;23;922;-68
2022/10/19 01:15:05;;;;;;;75.90;34.67;;;;;;;;;;633628;23;970;-68
2022/10/19 01:16:26;;;;;;;76.60;34.30;;;;;;;;;;630992;23;900;-68
2022/10/19 01:17:45;;;;;;;80.22;34.92;;;;;;;;;;631191;23;1041;-68
2022/10/19 01:19:19;;;;;;;82.75;34.83;;;;;;;;;;630165;23;1223;-68
2022/10/19 01:20:52;;;;;;;82.88;35.25;;;;;;;;;;627724;23;926;-68
2022/10/19 01:22:30;;;;;;;71.97;32.97;;;;;;;;;;630829;23;907;-68
2022/10/19 01:23:52;;;;;;;75.57;33.65;;;;;;;;;;630805;23;843;-69
2022/10/19 01:25:15;;;;;;;85.50;34.83;;;;;;;;;;629764;23;882;-68
2022/10/19 01:26:54;;;;;;;93.03;35.65;;;;;;;;;;630890;23;1045;-68
2022/10/19 01:28:36;;;;;;;86.15;34.63;;;;;;;;;;630532;23;1264;-68
2022/10/19 01:29:52;;;;;;;84.57;33.97;;;;;;;;;;628161;23;1369;-69
2022/10/19 01:31:03;;;;;;;76.93;33.30;;;;;;;;;;630287;23;894;-69
2022/10/19 01:32:21;;;;;;;95.28;34.85;;;;;;;;;;630951;23;1030;-69
2022/10/19 01:33:32;;;;;;;79.28;32.78;;;;;;;;;;631213;23;794;-69
2022/10/19 01:34:54;;;;;;;71.90;30.52;;;;;;;;;;629831;23;1077;-69
2022/10/19 01:36:14;;;;;;;66.45;29.85;;;;;;;;;;627323;23;1359;-69
2022/10/19 01:37:34;;;;;;;74.95;30.23;;;;;;;;;;630671;23;886;-68
2022/10/19 01:38:49;;;;;;;68.57;28.35;;;;;;;;;;630178;23;1357;-69
2022/10/19 01:40:19;;;;;;;68.32;28.33;;;;;;;;;;630729;23;989;-68
2022/10/19 01:41:48;;;;;;;66.97;28.42;;;;;;;;;;630281;23;971;-68
2022/10/19 01:43:20;;;;;;;63.90;27.92;;;;;;;;;;630928;23;883;-69
2022/10/19 01:44:37;;;;;;;87.70;29.10;;;;;;;;;;630750;23;1200;-68
2022/10/19 01:45:52;;;;;;;76.63;29.63;;;;;;;;;;631217;23;1057;-68
2022/10/19 01:47:15;;;;;;;73.88;28.65;;;;;;;;;;630808;23;930;-69
2022/10/19 01:48:48;;;;;;;80.07;30.05;;;;;;;;;;630627;23;741;-68
2022/10/19 01:50:20;;;;;;;64.63;28.25;;;;;;;;;;633036;23;2028;-68
2022/10/19 01:51:46;;;;;;;64.65;28.20;;;;;;;;;;633474;23;1002;-67
2022/10/19 01:52:57;;;;;;;79.97;29.92;;;;;;;;;;630886;23;871;-68
2022/10/19 01:54:08;;;;;;;70.55;28.23;;;;;;;;;;631538;23;908;-68
2022/10/19 01:55:17;;;;;;;66.45;28.52;;;;;;;;;;631501;23;851;-68
2022/10/19 01:56:26;;;;;;;56.85;26.85;;;;;;;;;;629864;23;955;-68
2022/10/19 01:57:38;;;;;;;68.18;28.05;;;;;;;;;;631218;23;812;-69
2022/10/19 01:58:48;;;;;;;66.18;28.00;;;;;;;;;;630989;23;981;-68
2022/10/19 02:00:06;;;;;;;62.75;27.17;;;;;;;;;;630319;23;994;-68
2022/10/19 02:01:17;;;;;;;59.47;26.42;;;;;;;;;;629688;23;1007;-67
2022/10/19 02:02:27;;;;;;;59.30;25.90;;;;;;;;;;630823;23;889;-68
2022/10/19 02:03:38;;;;;;;53.83;25.17;;;;;;;;;;631037;23;1060;-68
2022/10/19 02:04:47;;;;;;;51.83;24.35;;;;;;;;;;630865;23;942;-69
2022/10/19 02:05:56;;;;;;;55.33;25.27;;;;;;;;;;630827;23;1061;-68
2022/10/19 02:07:06;;;;;;;53.45;24.08;;;;;;;;;;631125;23;1014;-68
2022/10/19 02:08:19;;;;;;;51.35;23.48;;;;;;;;;;631237;23;1395;-69
2022/10/19 02:09:30;;;;;;;50.13;23.25;;;;;;;;;;630656;23;831;-68
2022/10/19 02:10:40;;;;;;;49.75;23.45;;;;;;;;;;633891;23;884;-69
2022/10/19 02:11:58;;;;;;;63.72;24.55;;;;;;;;;;633722;23;1053;-68
2022/10/19 02:13:08;;;;;;;66.68;24.88;;;;;;;;;;631494;23;1121;-68
2022/10/19 02:14:18;;;;;;;52.60;23.17;;;;;;;;;;630564;23;1544;-68
2022/10/19 02:15:29;;;;;;;52.05;23.63;;;;;;;;;;631152;23;835;-69
2022/10/19 02:16:46;;;;;;;53.05;23.85;;;;;;;;;;629620;23;911;-68
2022/10/19 02:17:58;;;;;;;54.42;23.73;;;;;;;;;;630370;23;875;-69
2022/10/19 02:19:10;;;;;;;64.90;24.92;;;;;;;;;;630650;23;1303;-68
2022/10/19 02:20:19;;;;;;;52.43;24.03;;;;;;;;;;631080;23;852;-68
2022/10/19 02:21:27;;;;;;;57.90;24.15;;;;;;;;;;630880;23;844;-69
2022/10/19 02:22:35;;;;;;;57.17;24.23;;;;;;;;;;630891;23;1473;-68
2022/10/19 02:23:43;;;;;;;58.80;24.23;;;;;;;;;;630673;23;1022;-68
2022/10/19 02:24:50;;;;;;;62.50;25.40;;;;;;;;;;630352;23;951;-68
2022/10/19 02:25:59;;;;;;;77.28;26.05;;;;;;;;;;630272;23;1306;-68
2022/10/19 02:27:07;;;;;;;64.25;25.27;;;;;;;;;;631155;23;1057;-68
2022/10/19 02:28:15;;;;;;;75.65;26.98;;;;;;;;;;630597;23;989;-68
2022/10/19 02:29:23;;;;;;;59.38;25.20;;;;;;;;;;631241;23;998;-68
2022/10/19 02:30:31;;;;;;;59.28;23.98;;;;;;;;;;629958;23;1073;-68
2022/10/19 02:31:39;;;;;;;57.00;25.30;;;;;;;;;;627719;23;1959;-68
2022/10/19 02:32:48;;;;;;;69.68;24.50;;;;;;;;;;630983;23;848;-68
2022/10/19 02:33:56;;;;;;;64.40;24.98;;;;;;;;;;631108;23;962;-68
2022/10/19 02:35:04;;;;;;;72.43;24.77;;;;;;;;;;630628;23;1304;-68
2022/10/19 02:36:12;;;;;;;67.78;25.48;;;;;;;;;;630113;23;887;-68
2022/10/19 02:37:20;;;;;;;69.85;25.75;;;;;;;;;;630657;23;959;-68
2022/10/19 02:38:28;;;;;;;79.63;26.23;;;;;;;;;;626940;23;1209;-68
2022/10/19 02:39:37;;;;;;;75.90;24.77;;;;;;;;;;631111;23;772;-68
2022/10/19 02:40:50;;;;;;;87.43;26.75;;;;;;;;;;631186;23;1006;-68
2022/10/19 02:42:12;;;;;;;73.75;25.25;;;;;;;;;;631247;23;874;-67
2022/10/19 02:43:25;;;;;;;70.70;26.23;;;;;;;;;;630603;23;982;-68
2022/10/19 02:44:49;;;;;;;60.03;24.92;;;;;;;;;;631259;23;827;-68
2022/10/19 02:46:01;;;;;;;68.22;25.33;;;;;;;;;;631104;23;1021;-68
2022/10/19 02:47:11;;;;;;;57.95;25.08;;;;;;;;;;630229;23;965;-68
2022/10/19 02:48:29;;;;;;;50.20;24.38;;;;;;;;;;630712;23;877;-68
2022/10/19 02:49:38;;;;;;;52.10;24.52;;;;;;;;;;630965;23;848;-68
2022/10/19 02:50:48;;;;;;;50.75;24.33;;;;;;;;;;630705;23;923;-68
2022/10/19 02:52:01;;;;;;;52.97;24.52;;;;;;;;;;631428;23;831;-68
2022/10/19 02:53:09;;;;;;;49.85;23.92;;;;;;;;;;631108;23;1030;-68
2022/10/19 02:54:17;;;;;;;50.47;23.75;;;;;;;;;;630451;23;867;-68
2022/10/19 02:55:25;;;;;;;46.47;22.58;;;;;;;;;;631396;23;848;-68
2022/10/19 02:56:34;;;;;;;52.72;24.02;;;;;;;;;;630875;23;998;-68
2022/10/19 02:57:41;;;;;;;49.00;23.63;;;;;;;;;;630951;23;1062;-68
2022/10/19 02:58:49;;;;;;;48.20;23.35;;;;;;;;;;630882;23;1010;-68
2022/10/19 02:59:57;;;;;;;47.65;23.33;;;;;;;;;;630524;23;864;-68
2022/10/19 03:01:05;;;;;;;48.90;24.00;;;;;;;;;;630836;23;1054;-68
2022/10/19 03:02:14;;;;;;;58.42;25.35;;;;;;;;;;630518;23;871;-68
2022/10/19 03:03:21;;;;;;;46.88;23.13;;;;;;;;;;630193;23;1275;-68
2022/10/19 03:04:29;;;;;;;49.17;23.33;;;;;;;;;;630522;23;1242;-68
2022/10/19 03:05:37;;;;;;;50.78;23.88;;;;;;;;;;630920;23;1308;-68
2022/10/19 03:06:46;;;;;;;52.55;24.13;;;;;;;;;;629998;23;866;-68
2022/10/19 03:07:54;;;;;;;51.00;23.42;;;;;;;;;;631021;23;1871;-68
2022/10/19 03:09:02;;;;;;;52.28;24.27;;;;;;;;;;631573;23;905;-68
2022/10/19 03:10:10;;;;;;;51.28;23.77;;;;;;;;;;631259;23;938;-68
2022/10/19 03:11:18;;;;;;;48.60;23.90;;;;;;;;;;627610;23;902;-68
2022/10/19 03:12:26;;;;;;;48.35;23.92;;;;;;;;;;629645;23;1397;-68
2022/10/19 03:13:33;;;;;;;51.50;23.70;;;;;;;;;;633954;23;962;-68
2022/10/19 03:14:41;;;;;;;48.70;23.52;;;;;;;;;;629814;23;887;-68
2022/10/19 03:15:49;;;;;;;47.20;23.20;;;;;;;;;;630532;23;901;-68
2022/10/19 03:17:02;;;;;;;46.15;23.50;;;;;;;;;;631104;23;875;-68
2022/10/19 03:18:10;;;;;;;51.65;23.35;;;;;;;;;;631130;23;849;-68
2022/10/19 03:19:18;;;;;;;51.40;23.90;;;;;;;;;;630219;23;1352;-68
2022/10/19 03:20:26;;;;;;;53.20;24.75;;;;;;;;;;630946;23;1061;-69
2022/10/19 03:21:34;;;;;;;55.47;25.10;;;;;;;;;;632485;23;1354;-69
2022/10/19 03:22:42;;;;;;;62.22;25.30;;;;;;;;;;633907;23;894;-69
2022/10/19 03:23:50;;;;;;;64.93;24.67;;;;;;;;;;629916;23;874;-68
2022/10/19 03:24:57;;;;;;;53.63;23.65;;;;;;;;;;631328;23;872;-68
2022/10/19 03:26:06;;;;;;;58.25;25.20;;;;;;;;;;631269;23;878;-68
2022/10/19 03:27:14;;;;;;;65.65;25.35;;;;;;;;;;630810;23;1444;-68
2022/10/19 03:28:21;;;;;;;52.30;23.08;;;;;;;;;;630736;23;1220;-68
2022/10/19 03:29:29;;;;;;;63.45;24.88;;;;;;;;;;630277;23;897;-68
2022/10/19 03:30:37;;;;;;;58.17;24.25;;;;;;;;;;630922;23;843;-68
2022/10/19 03:31:45;;;;;;;63.47;23.95;;;;;;;;;;630157;23;891;-68
2022/10/19 03:32:53;;;;;;;57.08;23.67;;;;;;;;;;631182;23;838;-68
2022/10/19 03:34:01;;;;;;;53.45;23.25;;;;;;;;;;630793;23;1327;-69
2022/10/19 03:35:08;;;;;;;55.38;23.60;;;;;;;;;;631181;23;859;-68
2022/10/19 03:36:16;;;;;;;65.70;25.55;;;;;;;;;;630570;23;1010;-67
2022/10/19 03:37:25;;;;;;;56.17;23.25;;;;;;;;;;631357;23;835;-68
2022/10/19 03:38:33;;;;;;;65.05;24.23;;;;;;;;;;631335;23;1029;-68
2022/10/19 03:39:42;;;;;;;63.95;24.55;;;;;;;;;;630050;23;1283;-69
2022/10/19 03:40:49;;;;;;;53.33;23.77;;;;;;;;;;630562;23;898;-68
2022/10/19 03:41:58;;;;;;;47.38;22.33;;;;;;;;;;630522;23;843;-68
2022/10/19 03:43:06;;;;;;;53.40;23.55;;;;;;;;;;631247;23;886;-67
2022/10/19 03:44:13;;;;;;;48.03;21.95;;;;;;;;;;630602;23;868;-68
2022/10/19 03:45:21;;;;;;;49.67;21.88;;;;;;;;;;629959;23;1224;-68
2022/10/19 03:46:29;;;;;;;43.67;21.23;;;;;;;;;;627698;23;1053;-68
2022/10/19 03:47:37;;;;;;;43.63;20.90;;;;;;;;;;628256;23;1141;-68
2022/10/19 03:48:45;;;;;;;48.05;21.27;;;;;;;;;;633018;23;883;-68
2022/10/19 03:49:53;;;;;;;41.95;20.02;;;;;;;;;;630557;23;866;-69
2022/10/19 03:51:02;;;;;;;40.30;18.40;;;;;;;;;;630585;23;887;-68
2022/10/19 03:52:11;;;;;;;40.75;18.45;;;;;;;;;;630847;23;911;-68
2022/10/19 03:53:19;;;;;;;35.88;18.40;;;;;;;;;;631199;23;994;-68
2022/10/19 03:54:27;;;;;;;36.05;18.35;;;;;;;;;;629816;23;987;-68
2022/10/19 03:55:34;;;;;;;37.70;18.42;;;;;;;;;;630924;23;788;-68
2022/10/19 03:56:43;;;;;;;36.15;18.00;;;;;;;;;;631215;23;854;-68
2022/10/19 03:57:51;;;;;;;35.70;18.08;;;;;;;;;;631098;23;867;-68
2022/10/19 03:58:59;;;;;;;38.92;18.48;;;;;;;;;;630817;23;1109;-68
2022/10/19 04:00:08;;;;;;;36.15;17.83;;;;;;;;;;630016;23;902;-68
2022/10/19 04:01:18;;;;;;;33.17;17.23;;;;;;;;;;630737;23;1240;-68
2022/10/19 04:02:30;;;;;;;37.30;17.75;;;;;;;;;;630662;23;858;-68
2022/10/19 04:03:38;;;;;;;36.90;17.95;;;;;;;;;;630895;23;1208;-68
2022/10/19 04:04:50;;;;;;;35.42;17.65;;;;;;;;;;630134;23;2163;-67
2022/10/19 04:06:06;;;;;;;37.97;18.52;;;;;;;;;;630672;23;926;-68
2022/10/19 04:07:16;;;;;;;37.78;18.63;;;;;;;;;;630751;23;913;-68
2022/10/19 04:08:24;;;;;;;38.38;18.45;;;;;;;;;;630119;23;1118;-68
2022/10/19 04:09:32;;;;;;;40.80;18.65;;;;;;;;;;630738;23;1014;-68
2022/10/19 04:10:40;;;;;;;36.63;18.75;;;;;;;;;;630592;23;903;-68
2022/10/19 04:11:58;;;;;;;36.33;18.60;;;;;;;;;;631452;23;1033;-68
2022/10/19 04:13:06;;;;;;;39.78;19.38;;;;;;;;;;630990;23;846;-68
2022/10/19 04:14:15;;;;;;;41.47;19.23;;;;;;;;;;630666;23;874;-68
2022/10/19 04:15:23;;;;;;;40.45;19.65;;;;;;;;;;629989;23;903;-68
2022/10/19 04:16:31;;;;;;;40.97;19.80;;;;;;;;;;630365;23;845;-68
2022/10/19 04:17:39;;;;;;;41.55;19.48;;;;;;;;;;631091;23;922;-67
2022/10/19 04:18:47;;;;;;;40.58;18.80;;;;;;;;;;630286;23;786;-68
2022/10/19 04:19:54;;;;;;;36.08;18.45;;;;;;;;;;631047;23;906;-68
2022/10/19 04:21:03;;;;;;;42.47;19.45;;;;;;;;;;630908;23;870;-68
2022/10/19 04:22:15;;;;;;;39.22;18.80;;;;;;;;;;630530;23;1372;-68
2022/10/19 04:23:25;;;;;;;39.53;18.45;;;;;;;;;;630661;23;930;-69
2022/10/19 04:24:33;;;;;;;39.80;19.08;;;;;;;;;;630190;23;886;-68
2022/10/19 04:25:41;;;;;;;38.60;19.40;;;;;;;;;;630373;23;991;-68
2022/10/19 04:26:52;;;;;;;41.40;19.10;;;;;;;;;;631169;23;816;-68
2022/10/19 04:28:00;;;;;;;43.03;20.02;;;;;;;;;;630998;23;1292;-68
2022/10/19 04:29:09;;;;;;;43.20;19.67;;;;;;;;;;630768;23;912;-68
2022/10/19 04:30:17;;;;;;;38.58;18.50;;;;;;;;;;631134;23;1430;-68
2022/10/19 04:31:26;;;;;;;34.53;17.90;;;;;;;;;;630542;23;808;-68
2022/10/19 04:32:33;;;;;;;36.22;18.13;;;;;;;;;;629689;23;859;-68
2022/10/19 04:33:41;;;;;;;31.55;17.42;;;;;;;;;;630948;23;935;-68
2022/10/19 04:34:49;;;;;;;32.45;16.60;;;;;;;;;;630234;23;1278;-68
2022/10/19 04:36:00;;;;;;;32.22;16.45;;;;;;;;;;630924;23;1038;-68
2022/10/19 04:37:08;;;;;;;28.75;15.85;;;;;;;;;;631138;23;1073;-68
2022/10/19 04:38:15;;;;;;;28.90;15.10;;;;;;;;;;630432;23;1312;-68
2022/10/19 04:39:23;;;;;;;29.27;15.05;;;;;;;;;;629872;23;971;-68
2022/10/19 04:40:33;;;;;;;26.20;14.88;;;;;;;;;;631178;23;999;-68
2022/10/19 04:41:41;;;;;;;23.00;13.75;;;;;;;;;;630296;23;1026;-68
2022/10/19 04:42:49;;;;;;;25.38;13.88;;;;;;;;;;630700;23;1200;-68
2022/10/19 04:43:57;;;;;;;24.85;14.68;;;;;;;;;;627541;23;899;-68
2022/10/19 04:45:05;;;;;;;25.65;14.07;;;;;;;;;;630762;23;1388;-68
2022/10/19 04:46:17;;;;;;;27.00;15.05;;;;;;;;;;634287;23;958;-69
2022/10/19 04:47:27;;;;;;;24.55;14.50;;;;;;;;;;631530;23;958;-68
2022/10/19 04:48:36;;;;;;;25.00;14.20;;;;;;;;;;629837;23;1279;-68
2022/10/19 04:49:44;;;;;;;27.90;14.40;;;;;;;;;;625057;23;1076;-68
2022/10/19 04:50:53;;;;;;;29.52;15.60;;;;;;;;;;629934;23;924;-68
2022/10/19 04:52:01;;;;;;;30.80;16.02;;;;;;;;;;631419;23;1066;-68
2022/10/19 04:53:09;;;;;;;27.20;15.50;;;;;;;;;;631035;23;834;-68
2022/10/19 04:54:17;;;;;;;29.30;15.57;;;;;;;;;;631307;23;859;-68
2022/10/19 04:55:25;;;;;;;29.60;15.55;;;;;;;;;;630735;23;1072;-65
2022/10/19 04:56:33;;;;;;;32.00;15.82;;;;;;;;;;631761;23;1048;-64
2022/10/19 04:57:41;;;;;;;30.40;15.57;;;;;;;;;;630908;23;835;-65
2022/10/19 04:58:49;;;;;;;29.77;15.27;;;;;;;;;;630788;23;934;-65
2022/10/19 04:59:57;;;;;;;26.73;14.85;;;;;;;;;;630466;23;962;-65
2022/10/19 05:01:13;;;;;;;26.90;15.13;;;;;;;;;;630640;23;879;-65
2022/10/19 05:02:22;;;;;;;32.22;15.68;;;;;;;;;;631344;23;835;-65
2022/10/19 05:03:33;;;;;;;26.25;14.63;;;;;;;;;;629911;23;879;-65
2022/10/19 05:04:46;;;;;;;28.58;15.07;;;;;;;;;;630435;23;828;-65
2022/10/19 05:05:57;;;;;;;27.90;15.02;;;;;;;;;;630527;23;1327;-65
2022/10/19 05:07:06;;;;;;;28.77;15.23;;;;;;;;;;630845;23;1032;-65
2022/10/19 05:08:14;;;;;;;29.92;15.07;;;;;;;;;;630687;23;990;-65
2022/10/19 05:09:22;;;;;;;27.55;15.45;;;;;;;;;;630511;23;907;-65
2022/10/19 05:10:30;;;;;;;25.67;14.95;;;;;;;;;;631113;23;1033;-64
2022/10/19 05:11:38;;;;;;;27.75;15.30;;;;;;;;;;631157;23;1178;-65
2022/10/19 05:12:45;;;;;;;28.38;15.68;;;;;;;;;;630430;23;894;-65
2022/10/19 05:13:54;;;;;;;34.45;16.63;;;;;;;;;;629670;23;771;-65
2022/10/19 05:15:03;;;;;;;29.83;16.63;;;;;;;;;;630785;23;1022;-65
2022/10/19 05:16:12;;;;;;;34.53;17.52;;;;;;;;;;628353;23;951;-64
2022/10/19 05:17:19;;;;;;;33.00;17.13;;;;;;;;;;631052;23;835;-65
2022/10/19 05:18:27;;;;;;;36.83;18.00;;;;;;;;;;631700;23;939;-65
2022/10/19 05:19:38;;;;;;;33.13;17.73;;;;;;;;;;630536;23;919;-65
2022/10/19 05:20:46;;;;;;;34.38;17.67;;;;;;;;;;631507;23;1065;-65
2022/10/19 05:22:12;;;;;;;34.70;17.58;;;;;;;;;;631097;23;1075;-65
2022/10/19 05:23:19;;;;;;;36.25;17.45;;;;;;;;;;630053;23;1299;-66
2022/10/19 05:24:27;;;;;;;33.63;17.10;;;;;;;;;;627611;23;900;-65
2022/10/19 05:25:35;;;;;;;34.90;18.00;;;;;;;;;;631312;23;895;-64
2022/10/19 05:26:50;;;;;;;35.10;18.00;;;;;;;;;;631163;23;852;-65
2022/10/19 05:27:58;;;;;;;33.10;17.48;;;;;;;;;;630354;23;762;-65
2022/10/19 05:29:09;;;;;;;38.38;18.45;;;;;;;;;;630485;23;879;-65
2022/10/19 05:30:18;;;;;;;37.00;18.23;;;;;;;;;;631236;23;951;-65
2022/10/19 05:31:27;;;;;;;34.17;17.83;;;;;;;;;;630497;23;1121;-65
2022/10/19 05:32:34;;;;;;;38.40;18.30;;;;;;;;;;631428;23;953;-65
2022/10/19 05:33:43;;;;;;;35.67;18.60;;;;;;;;;;630590;23;1239;-65
2022/10/19 05:34:51;;;;;;;41.30;19.15;;;;;;;;;;631303;23;945;-65
2022/10/19 05:35:59;;;;;;;41.65;19.38;;;;;;;;;;631588;23;792;-65
2022/10/19 05:37:09;;;;;;;37.38;18.60;;;;;;;;;;629997;23;883;-65
2022/10/19 05:38:17;;;;;;;34.22;18.25;;;;;;;;;;631366;23;1003;-64
2022/10/19 05:39:25;;;;;;;38.83;18.17;;;;;;;;;;630335;23;1006;-65
2022/10/19 05:40:33;;;;;;;41.35;19.45;;;;;;;;;;631010;23;1022;-64
2022/10/19 05:41:42;;;;;;;40.40;19.48;;;;;;;;;;631277;23;986;-65
2022/10/19 05:42:50;;;;;;;39.65;19.08;;;;;;;;;;630929;23;1351;-65
2022/10/19 05:43:59;;;;;;;37.33;19.45;;;;;;;;;;627156;23;860;-65
2022/10/19 05:45:09;;;;;;;41.38;19.63;;;;;;;;;;630286;23;954;-65
2022/10/19 05:46:17;;;;;;;37.65;18.35;;;;;;;;;;631148;23;858;-65
2022/10/19 05:47:25;;;;;;;39.65;19.48;;;;;;;;;;631050;23;891;-65
2022/10/19 05:48:33;;;;;;;38.53;19.38;;;;;;;;;;630406;23;844;-65
2022/10/19 05:49:41;;;;;;;41.97;20.38;;;;;;;;;;631116;23;886;-65
2022/10/19 05:50:53;;;;;;;42.13;20.27;;;;;;;;;;630086;23;961;-65
2022/10/19 05:52:02;;;;;;;39.08;19.70;;;;;;;;;;631004;23;1393;-65
2022/10/19 05:53:10;;;;;;;37.65;18.85;;;;;;;;;;629912;23;1000;-65
2022/10/19 05:54:18;;;;;;;40.80;18.98;;;;;;;;;;631590;23;1022;-65
2022/10/19 05:55:27;;;;;;;42.30;19.73;;;;;;;;;;630804;23;928;-65
2022/10/19 05:56:35;;;;;;;39.28;18.90;;;;;;;;;;630519;23;1015;-65
2022/10/19 05:57:43;;;;;;;41.50;19.42;;;;;;;;;;626775;23;954;-64
2022/10/19 05:58:51;;;;;;;42.15;19.42;;;;;;;;;;626822;23;1339;-64
2022/10/19 06:00:00;;;;;;;39.55;19.13;;;;;;;;;;630513;23;975;-65
2022/10/19 06:01:09;;;;;;;36.08;18.73;;;;;;;;;;632784;23;1227;-65
2022/10/19 06:02:17;;;;;;;35.25;18.10;;;;;;;;;;629645;23;1430;-65
2022/10/19 06:03:25;;;;;;;39.47;18.15;;;;;;;;;;627986;23;1350;-65
2022/10/19 06:04:33;;;;;;;36.00;18.45;;;;;;;;;;630329;23;954;-65
2022/10/19 06:05:41;;;;;;;33.78;18.48;;;;;;;;;;630657;23;1355;-65
2022/10/19 06:06:49;;;;;;;34.22;18.45;;;;;;;;;;630953;23;902;-65
2022/10/19 06:07:57;;;;;;;36.55;19.38;;;;;;;;;;631184;23;886;-65
2022/10/19 06:09:04;;;;;;;34.20;19.52;;;;;;;;;;630848;23;1037;-66
2022/10/19 06:10:12;;;;;;;39.67;19.52;;;;;;;;;;627557;23;939;-65
2022/10/19 06:11:28;;;;;;;38.55;19.75;;;;;;;;;;630698;23;931;-65
2022/10/19 06:12:36;;;;;;;39.78;19.33;;;;;;;;;;630884;23;808;-65
2022/10/19 06:13:45;;;;;;;43.20;20.67;;;;;;;;;;629892;23;1053;-65
2022/10/19 06:14:54;;;;;;;36.88;20.02;;;;;;;;;;630298;23;833;-65
2022/10/19 06:16:03;;;;;;;40.85;20.42;;;;;;;;;;630957;23;901;-65
2022/10/19 06:17:11;;;;;;;38.30;19.77;;;;;;;;;;631175;23;811;-65
2022/10/19 06:18:24;;;;;;;35.78;18.63;;;;;;;;;;630681;23;831;-65
2022/10/19 06:19:33;;;;;;;39.15;20.15;;;;;;;;;;629149;23;1294;-66
2022/10/19 06:20:41;;;;;;;39.00;19.85;;;;;;;;;;630963;23;1248;-65
2022/10/19 06:21:52;;;;;;;36.95;19.80;;;;;;;;;;630676;23;967;-66
2022/10/19 06:23:00;;;;;;;39.15;19.63;;;;;;;;;;631566;23;1065;-65
2022/10/19 06:24:09;;;;;;;36.28;19.08;;;;;;;;;;630886;23;1298;-65
2022/10/19 06:25:17;;;;;;;36.15;18.67;;;;;;;;;;630749;23;1034;-65
2022/10/19 06:26:27;;;;;;;35.03;17.88;;;;;;;;;;630603;23;1964;-65
2022/10/19 06:27:34;;;;;;;35.53;17.60;;;;;;;;;;631006;23;985;-65
2022/10/19 06:28:43;;;;;;;40.97;19.70;;;;;;;;;;630693;23;859;-65
2022/10/19 06:29:51;;;;;;;34.40;19.00;;;;;;;;;;630924;23;1054;-65
2022/10/19 06:30:59;;;;;;;39.30;19.73;;;;;;;;;;631134;23;919;-65
2022/10/19 06:32:07;;;;;;;37.65;19.77;;;;;;;;;;630730;23;1549;-65
2022/10/19 06:33:15;;;;;;;36.42;20.20;;;;;;;;;;630869;23;919;-65
2022/10/19 06:34:23;;;;;;;38.53;20.30;;;;;;;;;;633932;23;1462;-66
2022/10/19 06:35:31;;;;;;;42.67;21.60;;;;;;;;;;633192;23;1266;-64
2022/10/19 06:36:39;;;;;;;38.20;21.48;;;;;;;;;;631168;23;853;-66
2022/10/19 06:37:47;;;;;;;35.92;21.13;;;;;;;;;;631274;23;856;-65
2022/10/19 06:38:58;;;;;;;36.90;20.80;;;;;;;;;;629250;23;1354;-65
2022/10/19 06:40:06;;;;;;;35.65;20.35;;;;;;;;;;631433;23;855;-65
2022/10/19 06:41:15;;;;;;;40.83;21.83;;;;;;;;;;630561;23;990;-65
2022/10/19 06:42:23;;;;;;;43.08;22.13;;;;;;;;;;630850;23;819;-66
2022/10/19 06:43:31;;;;;;;37.85;21.15;;;;;;;;;;630790;23;847;-65
2022/10/19 06:44:42;;;;;;;31.70;19.40;;;;;;;;;;630833;23;863;-66
2022/10/19 06:45:50;;;;;;;35.92;20.40;;;;;;;;;;631191;23;935;-66
2022/10/19 06:46:58;;;;;;;35.60;19.85;;;;;;;;;;630714;23;1905;-65
2022/10/19 06:48:06;;;;;;;37.10;20.02;;;;;;;;;;627204;23;1169;-65
2022/10/19 06:49:14;;;;;;;33.17;19.33;;;;;;;;;;630707;23;926;-65
2022/10/19 06:50:22;;;;;;;31.92;18.90;;;;;;;;;;630792;23;1235;-65
2022/10/19 06:51:32;;;;;;;34.55;19.13;;;;;;;;;;630918;23;977;-65
2022/10/19 06:52:40;;;;;;;35.38;19.08;;;;;;;;;;630371;23;867;-65
2022/10/19 06:53:49;;;;;;;33.70;19.25;;;;;;;;;;631072;23;902;-65
2022/10/19 06:54:56;;;;;;;32.63;19.08;;;;;;;;;;629654;23;879;-65
2022/10/19 06:56:05;;;;;;;33.90;19.15;;;;;;;;;;627991;23;906;-65
2022/10/19 06:57:13;;;;;;;32.63;19.17;;;;;;;;;;631013;23;812;-65
2022/10/19 06:58:21;;;;;;;31.55;18.73;;;;;;;;;;631329;23;926;-64
2022/10/19 06:59:29;;;;;;;33.97;18.95;;;;;;;;;;629544;23;1116;-65
2022/10/19 07:00:37;;;;;;;33.42;18.13;;;;;;;;;;629807;23;1066;-65
2022/10/19 07:01:48;;;;;;;32.35;17.75;;;;;;;;;;630512;23;930;-65
2022/10/19 07:02:59;;;;;;;30.65;17.80;;;;;;;;;;630683;23;946;-65
2022/10/19 07:04:07;;;;;;;28.88;17.02;;;;;;;;;;630046;23;827;-66
2022/10/19 07:05:15;;;;;;;28.42;17.23;;;;;;;;;;630890;23;882;-65